Portada
METAR-TAF:

METAR-TAF

Aeroports :

Rivas, Nicaragua

latitud: 11-25N, longitud: 085-50W, altitud: 53 m

Observació

L'informe es va fer fa 12 hores i 11 minuts, a les 23:00 UTC
Vent 6 kt del Nord
Temperatura 27°C
Humitat 79%
Pressió 1009 hPa
Visibilitat: 8000 m
Cel ennuvolat a una alçada de 1200 ft, Cumulus congestus.
Núvols disperses a una alçada de 6000 ft
en les proximitats, pluja

METAR: MNRS 182300Z 36006KT 8000 VCRA BKN012TCU SCT060 27/23 Q1009 TCURA/SE/S

Hora: 05:11 (11:11 UTC)


TAF: manca

Observacions i pronòstics meteorològics de més de 4000 aeroports (METAR i TAF).

Les estacions disponibles són els punts grocs i vermells al mapa.

Posi el ratolí al punt desitjat per veure el nom de l'estació.

Feu clic per veure les observacions i els pronòstics meteorològics.

Per canviar el mapa: feu clic els botons verds amb una creu de color negre per apropar; al botó verd amb un guió per allunyar la imatge; o en les fletxes verdes per a mapes adjacents.


METAR-TAF: